Accueil
METAR-TAF:

METAR-TAF

Aéroports :

Base aérienne de Schaffen

Diest, Belgique

latitude: 51-00N, longitude: 005-04E, altitude: 30 m

Observation

Le bulletin a été fait il y a 40 minutes, à 20:25 UTC
Vent 12 kt de sud/sud-est
Température 9°C
Humidité 66%
Pression 998 hPa
Visibilité 10 km ou plus

METAR: EBDT 012025Z AUTO 16012KT 9999 BKN048/// BKN150/// 09/03 Q0998 BLU

Heure: 22:05 (21:05 UTC)

Prévision

Le bulletin a été fait il y a 33 heures et 24 minutes, à 11:41 UTC
Prévision valable du 29 à 13 UTC au 29 à 22 UTC
Vent 12 kt de sud/sud-ouest
Visibilité: 8000 m
Nuages fragmentés à une hauteur de 1500 ft
Temporairement
du 29 à 13 UTC au 29 à 22 UTC
Vent 10 kt de sud avec des rafales jusqu'à 20 kt
Visibilité: 4000 m
Nuages épars à une hauteur de 500 ft
Ciel couvert à une hauteur de 1000 ft
pluie faible,

TAF: EBDT 291141Z 2913/2922 20012KT 8000 BKN015 TEMPO 2913/2922 18010G20KT 4000 -RA SCT005 OVC010

Observations et prévisions météorologiques de plus de 4000 aéroports (messages METAR et TAF).

Les stations disponibles sont représentées par des disques jaunes et rouges sur la carte.

Passer la souris dessus pour voir le nom de la station.

Cliquer dessus pour voir les observations et prévisions météorologiques.

Pour changer de carte: cliquez sur les boutons verts avec une croix noire pour zoomer, sur le bouton vert avec un tiret pour effectuer un zoom arrière, ou sur les flèches vertes pour les cartes adjacentes.


METAR-TAF: